createdAt,value
2023-06-08T00:00:12.946Z,100386.34
2023-06-08T00:02:17.038Z,100389.00
2023-06-08T00:04:19.915Z,100391.75
2023-06-08T00:06:24.264Z,100389.09
2023-06-08T00:08:27.208Z,100389.16
2023-06-08T00:10:30.029Z,100384.06
2023-06-08T00:12:33.135Z,100389.41
2023-06-08T00:14:36.973Z,100393.00
2023-06-08T00:16:43.263Z,100381.56
2023-06-08T00:18:46.293Z,100378.03
2023-06-08T00:20:49.108Z,100375.41
2023-06-08T00:22:53.046Z,100384.31
2023-06-08T00:24:55.884Z,100372.91
2023-06-08T00:26:58.905Z,100384.38
2023-06-08T00:29:01.867Z,100385.38
2023-06-08T00:31:04.683Z,100378.38
2023-06-08T00:33:08.948Z,100376.66
2023-06-08T00:35:14.325Z,100371.25
2023-06-08T00:37:17.213Z,100373.19
2023-06-08T00:39:20.020Z,100369.91
2023-06-08T00:41:22.956Z,100370.84
2023-06-08T00:43:25.895Z,100371.84
2023-06-08T00:45:28.730Z,100362.38
2023-06-08T00:47:31.694Z,100369.41
2023-06-08T00:49:37.474Z,100378.19
2023-06-08T00:51:42.916Z,100368.66
2023-06-08T00:53:47.458Z,100364.19
2023-06-08T00:55:53.119Z,100376.69
2023-06-08T00:57:56.207Z,100375.00
2023-06-08T01:00:06.097Z,100375.78
2023-06-08T01:02:09.120Z,100363.44
2023-06-08T01:04:15.570Z,100370.66
2023-06-08T01:06:22.090Z,100372.31
2023-06-08T01:08:34.414Z,100368.06
2023-06-08T01:10:44.336Z,100369.09
2023-06-08T01:12:53.533Z,100370.03
2023-06-08T01:15:07.459Z,100370.84
2023-06-08T01:17:13.740Z,100371.09
2023-06-08T01:19:24.516Z,100378.97
2023-06-08T01:21:49.296Z,100379.81
2023-06-08T01:24:06.336Z,100374.53
2023-06-08T01:26:11.420Z,100381.75
2023-06-08T01:28:14.483Z,100380.09
2023-06-08T01:30:17.420Z,100383.53
2023-06-08T01:32:20.937Z,100384.53
2023-06-08T01:34:24.011Z,100385.34
2023-06-08T01:36:30.844Z,100381.75
2023-06-08T01:38:41.262Z,100385.50
2023-06-08T01:40:51.048Z,100380.94
2023-06-08T01:42:55.828Z,100380.19
2023-06-08T01:45:01.966Z,100377.59
2023-06-08T01:47:07.206Z,100376.00
2023-06-08T01:49:11.564Z,100373.59
2023-06-08T01:51:16.005Z,100378.13
2023-06-08T01:53:18.770Z,100377.38
2023-06-08T01:55:23.720Z,100377.47
2023-06-08T01:57:28.041Z,100375.75
2023-06-08T01:59:30.952Z,100374.09
2023-06-08T02:01:52.359Z,100380.16
2023-06-08T02:03:55.271Z,100367.09
2023-06-08T02:05:58.174Z,100367.22
2023-06-08T02:08:01.082Z,100369.03
2023-06-08T02:10:04.704Z,100367.34
2023-06-08T02:12:10.397Z,100361.09
2023-06-08T02:14:15.634Z,100367.34
2023-06-08T02:16:20.171Z,100370.75
2023-06-08T02:18:22.901Z,100370.97
2023-06-08T02:20:27.574Z,100368.59
2023-06-08T02:22:30.640Z,100374.59
2023-06-08T02:24:33.545Z,100376.34
2023-06-08T02:26:36.406Z,100372.31
2023-06-08T02:28:40.925Z,100375.16
2023-06-08T02:30:48.407Z,100364.59
2023-06-08T02:32:54.420Z,100371.53
2023-06-08T02:34:57.768Z,100374.13
2023-06-08T02:37:03.210Z,100375.00
2023-06-08T02:39:06.050Z,100376.88
2023-06-08T02:41:09.020Z,100377.78
2023-06-08T02:43:16.656Z,100364.72
2023-06-08T02:45:21.936Z,100379.56
2023-06-08T02:47:26.969Z,100383.28
2023-06-08T02:49:29.842Z,100376.44
2023-06-08T02:51:32.725Z,100376.47
2023-06-08T02:53:36.922Z,100373.91
2023-06-08T02:55:39.811Z,100365.13
2023-06-08T02:57:50.145Z,100364.34
2023-06-08T02:59:54.321Z,100365.16
2023-06-08T03:01:59.376Z,100360.84
2023-06-08T03:04:08.317Z,100363.53
2023-06-08T03:06:19.075Z,100364.34
2023-06-08T03:08:23.947Z,100365.25
2023-06-08T03:10:27.585Z,100368.81
2023-06-08T03:12:31.225Z,100362.63
2023-06-08T03:14:37.032Z,100367.09
2023-06-08T03:16:40.039Z,100365.25
2023-06-08T03:18:43.190Z,100367.78
2023-06-08T03:20:52.922Z,100372.19
2023-06-08T03:22:56.005Z,100366.97
2023-06-08T03:25:01.573Z,100357.38
2023-06-08T03:27:07.154Z,100367.13
2023-06-08T03:29:10.188Z,100367.13
2023-06-08T03:31:15.202Z,100365.41
2023-06-08T03:33:23.363Z,100360.19
2023-06-08T03:35:31.408Z,100366.31
2023-06-08T03:38:01.474Z,100370.81
2023-06-08T03:40:07.298Z,100371.72
2023-06-08T03:42:10.932Z,100372.75
2023-06-08T03:44:17.306Z,100378.84
2023-06-08T03:46:21.054Z,100374.44
2023-06-08T03:48:24.799Z,100375.97
2023-06-08T03:50:27.781Z,100375.13
2023-06-08T03:52:31.615Z,100382.03
2023-06-08T03:54:35.783Z,100376.91
2023-06-08T03:56:38.816Z,100384.91
2023-06-08T03:58:42.857Z,100384.03
2023-06-08T04:00:46.646Z,100388.44
2023-06-08T04:02:51.957Z,100382.22
2023-06-08T04:05:00.238Z,100387.50
2023-06-08T04:07:04.221Z,100388.34
2023-06-08T04:09:07.863Z,100383.03
2023-06-08T04:11:12.510Z,100386.56
2023-06-08T04:13:15.440Z,100385.75
2023-06-08T04:15:19.373Z,100378.69
2023-06-08T04:17:22.419Z,100381.38
2023-06-08T04:19:28.338Z,100384.81
2023-06-08T04:21:31.826Z,100381.25
2023-06-08T04:23:40.812Z,100387.28
2023-06-08T04:25:45.197Z,100384.75
2023-06-08T04:27:49.442Z,100383.72
2023-06-08T04:29:53.677Z,100386.25
2023-06-08T04:31:56.700Z,100382.72
2023-06-08T04:33:59.727Z,100382.69
2023-06-08T04:36:02.943Z,100381.78
2023-06-08T04:38:11.506Z,100381.69
2023-06-08T04:40:14.354Z,100378.97
2023-06-08T04:42:18.715Z,100378.88
2023-06-08T04:44:24.070Z,100381.44
2023-06-08T04:46:29.545Z,100379.75
2023-06-08T04:48:34.446Z,100383.25
2023-06-08T04:50:38.918Z,100376.88
2023-06-08T04:52:42.513Z,100370.81
2023-06-08T04:54:47.955Z,100373.41
2023-06-08T04:56:50.971Z,100372.53
2023-06-08T04:58:53.861Z,100371.31
2023-06-08T05:00:58.714Z,100378.38
2023-06-08T05:03:01.943Z,100381.78
2023-06-08T05:05:06.377Z,100374.84
2023-06-08T05:07:09.272Z,100387.91
2023-06-08T05:09:13.475Z,100393.28
2023-06-08T05:11:16.373Z,100396.47
2023-06-08T05:13:19.330Z,100394.84
2023-06-08T05:15:22.163Z,100396.50
2023-06-08T05:17:26.491Z,100395.44
2023-06-08T05:19:29.413Z,100402.31
2023-06-08T05:21:32.685Z,100401.19
2023-06-08T05:23:35.571Z,100394.97
2023-06-08T05:25:38.666Z,100396.53
2023-06-08T05:27:41.574Z,100392.94
2023-06-08T05:29:44.441Z,100396.34
2023-06-08T05:31:47.363Z,100401.63
2023-06-08T05:33:51.525Z,100391.59
2023-06-08T05:35:54.370Z,100396.88
2023-06-08T05:37:57.307Z,100393.59
2023-06-08T05:40:00.823Z,100399.75
2023-06-08T05:42:03.679Z,100397.84
2023-06-08T05:44:06.605Z,100396.72
2023-06-08T05:46:09.464Z,100400.09
2023-06-08T05:48:12.439Z,100402.31
2023-06-08T05:50:16.671Z,100395.22
2023-06-08T05:52:19.545Z,100400.38
2023-06-08T05:54:22.371Z,100395.84
2023-06-08T05:56:27.019Z,100404.28
2023-06-08T05:58:41.022Z,100403.28
2023-06-08T06:00:53.811Z,100395.06
2023-06-08T06:02:56.748Z,100391.16
2023-06-08T06:05:00.287Z,100387.47
2023-06-08T06:07:06.116Z,100388.31
2023-06-08T06:09:09.003Z,100391.75
2023-06-08T06:11:11.847Z,100397.19
2023-06-08T06:13:14.720Z,100398.88
2023-06-08T06:15:17.744Z,100387.28
2023-06-08T06:17:21.727Z,100396.50
2023-06-08T06:19:24.604Z,100397.28
2023-06-08T06:21:27.483Z,100399.94
2023-06-08T06:23:31.801Z,100394.47
2023-06-08T06:25:37.583Z,100398.50
2023-06-08T06:27:48.084Z,100406.16
2023-06-08T06:29:51.607Z,100403.25
2023-06-08T06:31:54.678Z,100405.72
2023-06-08T06:33:57.584Z,100404.56
2023-06-08T06:36:00.459Z,100406.75
2023-06-08T06:38:03.296Z,100415.00
2023-06-08T06:40:09.880Z,100414.44
2023-06-08T06:42:13.144Z,100422.09
2023-06-08T06:44:34.256Z,100416.28
2023-06-08T06:46:37.136Z,100420.38
2023-06-08T06:48:40.099Z,100421.31
2023-06-08T06:50:42.879Z,100430.84
2023-06-08T06:52:45.855Z,100425.31
2023-06-08T06:54:48.717Z,100434.75
2023-06-08T06:56:53.072Z,100434.63
2023-06-08T06:58:57.496Z,100432.16
2023-06-08T07:01:02.371Z,100430.25
2023-06-08T07:03:06.025Z,100433.38
2023-06-08T07:05:11.351Z,100438.44
2023-06-08T07:07:14.197Z,100438.91
2023-06-08T07:09:18.488Z,100437.97
2023-06-08T07:11:21.368Z,100437.72
2023-06-08T07:13:25.528Z,100444.41
2023-06-08T07:15:28.569Z,100442.22
2023-06-08T07:17:31.827Z,100452.72
2023-06-08T07:19:35.332Z,100447.31
2023-06-08T07:21:43.177Z,100447.06
2023-06-08T07:24:20.894Z,100453.03
2023-06-08T07:26:28.839Z,100454.25
2023-06-08T07:28:35.102Z,100451.44
2023-06-08T07:30:39.072Z,100458.19
2023-06-08T07:32:44.449Z,100461.69
2023-06-08T07:34:47.379Z,100460.13
2023-06-08T07:36:50.190Z,100461.81
2023-06-08T07:38:53.124Z,100463.34
2023-06-08T07:40:55.964Z,100455.94
2023-06-08T07:42:58.797Z,100453.78
2023-06-08T07:45:03.117Z,100451.06
2023-06-08T07:47:06.257Z,100450.06
2023-06-08T07:49:09.243Z,100444.72
2023-06-08T07:51:12.139Z,100447.88
2023-06-08T07:53:16.032Z,100449.66
2023-06-08T07:55:18.863Z,100446.56
2023-06-08T07:57:21.727Z,100445.31
2023-06-08T07:59:26.802Z,100435.88
2023-06-08T08:01:31.078Z,100433.09
2023-06-08T08:03:37.285Z,100429.66
2023-06-08T08:05:40.529Z,100421.41
2023-06-08T08:07:43.377Z,100425.97
2023-06-08T08:09:46.506Z,100421.56
2023-06-08T08:11:49.489Z,100427.69
2023-06-08T08:13:52.316Z,100430.00
2023-06-08T08:15:55.147Z,100421.06
2023-06-08T08:17:59.369Z,100422.69
2023-06-08T08:20:02.109Z,100418.66
2023-06-08T08:22:07.054Z,100417.06
2023-06-08T08:24:09.997Z,100411.22
2023-06-08T08:26:12.972Z,100404.00
2023-06-08T08:28:16.037Z,100411.22
2023-06-08T08:30:19.144Z,100406.66
2023-06-08T08:32:21.978Z,100412.06
2023-06-08T08:34:26.204Z,100409.63
2023-06-08T08:36:29.086Z,100410.06
2023-06-08T08:38:31.932Z,100410.44
2023-06-08T08:40:34.811Z,100405.28
2023-06-08T08:42:43.888Z,100406.78
2023-06-08T08:44:48.927Z,100403.75
2023-06-08T08:46:52.087Z,100404.06
2023-06-08T08:48:59.244Z,100398.66
2023-06-08T08:51:06.030Z,100399.72
2023-06-08T08:53:10.461Z,100396.84
2023-06-08T08:55:25.925Z,100400.25
2023-06-08T08:57:37.601Z,100394.97
2023-06-08T08:59:41.946Z,100387.06
2023-06-08T09:01:46.632Z,100384.91
2023-06-08T09:03:51.656Z,100388.16
2023-06-08T09:05:54.645Z,100383.63
2023-06-08T09:07:59.917Z,100375.03
2023-06-08T09:10:17.100Z,100378.94
2023-06-08T09:12:19.924Z,100373.22
2023-06-08T09:14:22.715Z,100366.59
2023-06-08T09:16:25.861Z,100367.72
2023-06-08T09:18:28.737Z,100372.69
2023-06-08T09:20:33.446Z,100370.63
2023-06-08T09:22:37.651Z,100374.91
2023-06-08T09:24:50.604Z,100367.31
2023-06-08T09:26:56.988Z,100369.72
2023-06-08T09:29:01.244Z,100364.13
2023-06-08T09:31:10.260Z,100362.53
2023-06-08T09:33:24.453Z,100358.53
2023-06-08T09:35:27.370Z,100362.84
2023-06-08T09:37:31.698Z,100350.56
2023-06-08T09:39:40.465Z,100355.41
2023-06-08T09:41:57.922Z,100349.41
2023-06-08T09:44:01.734Z,100355.56
2023-06-08T09:46:04.598Z,100345.09
2023-06-08T09:48:12.490Z,100354.03
2023-06-08T09:50:15.677Z,100355.81
2023-06-08T09:52:21.055Z,100345.50
2023-06-08T09:54:24.367Z,100346.34
2023-06-08T09:56:28.698Z,100350.13
2023-06-08T09:58:36.564Z,100352.22
2023-06-08T10:00:41.376Z,100338.88
2023-06-08T10:02:55.338Z,100348.75
2023-06-08T10:05:04.517Z,100333.94
2023-06-08T10:07:20.442Z,100332.16
2023-06-08T10:09:31.410Z,100330.69
2023-06-08T10:11:36.392Z,100332.03
2023-06-08T10:13:41.277Z,100345.63
2023-06-08T10:15:44.924Z,100339.59
2023-06-08T10:17:49.061Z,100334.38
2023-06-08T10:19:52.876Z,100323.44
2023-06-08T10:21:57.879Z,100329.53
2023-06-08T10:24:02.256Z,100322.34
2023-06-08T10:26:06.448Z,100317.19
2023-06-08T10:28:10.957Z,100308.59
2023-06-08T10:30:28.589Z,100317.16
2023-06-08T10:32:33.176Z,100318.09
2023-06-08T10:34:40.401Z,100317.25
2023-06-08T10:36:44.451Z,100307.75
2023-06-08T10:38:56.259Z,100303.34
2023-06-08T10:41:00.015Z,100297.75
2023-06-08T10:43:20.148Z,100297.28
2023-06-08T10:45:33.704Z,100298.88
2023-06-08T10:47:39.160Z,100293.91
2023-06-08T10:49:47.054Z,100293.09
2023-06-08T10:51:56.060Z,100292.16
2023-06-08T10:54:00.307Z,100290.97
2023-06-08T10:56:03.159Z,100278.84
2023-06-08T10:58:17.101Z,100274.16
2023-06-08T11:00:47.023Z,100275.63
2023-06-08T11:02:50.342Z,100277.31
2023-06-08T11:04:59.686Z,100263.34
2023-06-08T11:07:04.948Z,100268.81
2023-06-08T11:09:07.882Z,100258.97
2023-06-08T11:11:13.032Z,100264.53
2023-06-08T11:13:17.370Z,100272.16
2023-06-08T11:15:20.527Z,100264.13
2023-06-08T11:17:24.798Z,100263.16
2023-06-08T11:19:30.834Z,100264.13
2023-06-08T11:21:36.699Z,100254.78
2023-06-08T11:23:39.636Z,100254.16
2023-06-08T11:25:45.041Z,100253.88
2023-06-08T11:27:48.340Z,100253.00
2023-06-08T11:29:51.146Z,100253.00
2023-06-08T11:31:54.972Z,100245.09
2023-06-08T11:33:59.345Z,100241.09
2023-06-08T11:36:02.536Z,100240.59
2023-06-08T11:38:06.391Z,100238.41
2023-06-08T11:40:12.164Z,100230.94
2023-06-08T11:42:17.402Z,100233.63
2023-06-08T11:44:20.296Z,100237.19
2023-06-08T11:46:23.250Z,100237.66
2023-06-08T11:48:26.370Z,100238.41
2023-06-08T11:50:31.124Z,100236.75
2023-06-08T11:52:37.682Z,100235.44
2023-06-08T11:54:41.222Z,100236.53
2023-06-08T11:56:46.621Z,100231.88
2023-06-08T11:58:49.528Z,100220.63
2023-06-08T12:00:52.435Z,100222.19
2023-06-08T12:02:56.358Z,100226.91
2023-06-08T12:05:00.998Z,100228.63
2023-06-08T12:07:13.736Z,100232.88
2023-06-08T12:09:17.209Z,100227.94
2023-06-08T12:11:22.610Z,100233.19
2023-06-08T12:13:26.971Z,100247.06
2023-06-08T12:15:29.906Z,100234.34
2023-06-08T12:17:32.819Z,100233.09
2023-06-08T12:19:36.283Z,100241.47
2023-06-08T12:21:44.578Z,100243.28
2023-06-08T12:23:48.826Z,100250.28
2023-06-08T12:25:53.045Z,100248.97
2023-06-08T12:27:56.285Z,100245.47
2023-06-08T12:29:59.588Z,100245.13
2023-06-08T12:32:02.463Z,100241.31
2023-06-08T12:34:05.762Z,100237.03
2023-06-08T12:36:08.762Z,100238.19
2023-06-08T12:38:11.557Z,100244.59
2023-06-08T12:40:16.469Z,100245.34
2023-06-08T12:42:19.337Z,100244.16
2023-06-08T12:44:22.473Z,100254.81
2023-06-08T12:46:26.839Z,100250.78
2023-06-08T12:48:31.704Z,100254.06
2023-06-08T12:50:34.857Z,100252.41
2023-06-08T12:52:39.419Z,100261.34
2023-06-08T12:54:44.453Z,100252.34
2023-06-08T12:56:48.669Z,100253.47
2023-06-08T12:58:52.204Z,100255.97
2023-06-08T13:00:56.374Z,100254.56
2023-06-08T13:02:59.437Z,100253.38
2023-06-08T13:05:02.638Z,100241.34
2023-06-08T13:07:06.071Z,100242.91
2023-06-08T13:09:09.007Z,100239.47
2023-06-08T13:11:12.021Z,100235.19
2023-06-08T13:13:16.259Z,100233.53
2023-06-08T13:15:20.013Z,100235.09
2023-06-08T13:17:23.109Z,100235.34
2023-06-08T13:19:26.119Z,100234.66
2023-06-08T13:21:32.878Z,100232.47
2023-06-08T13:23:35.735Z,100241.31
2023-06-08T13:25:38.667Z,100235.28
2023-06-08T13:27:41.593Z,100232.78
2023-06-08T13:29:49.344Z,100232.09
2023-06-08T13:31:52.682Z,100225.84
2023-06-08T13:33:55.480Z,100229.78
2023-06-08T13:35:59.574Z,100228.81
2023-06-08T13:38:02.467Z,100212.69
2023-06-08T13:40:06.512Z,100207.47
2023-06-08T13:42:10.027Z,100204.47
2023-06-08T13:44:13.704Z,100197.81
2023-06-08T13:46:18.011Z,100197.72
2023-06-08T13:48:22.228Z,100193.53
2023-06-08T13:50:28.009Z,100197.19
2023-06-08T13:52:30.953Z,100193.66
2023-06-08T13:54:34.229Z,100188.75
2023-06-08T13:56:37.079Z,100186.09
2023-06-08T13:58:40.131Z,100188.31
2023-06-08T14:00:43.111Z,100186.81
2023-06-08T14:02:48.567Z,100183.22
2023-06-08T14:04:51.524Z,100180.41
2023-06-08T14:06:54.364Z,100173.13
2023-06-08T14:08:57.226Z,100169.59
2023-06-08T14:11:00.127Z,100171.06
2023-06-08T14:13:02.995Z,100165.16
2023-06-08T14:15:07.701Z,100165.63
2023-06-08T14:17:10.574Z,100165.28
2023-06-08T14:19:15.591Z,100165.94
2023-06-08T14:21:18.583Z,100173.34
2023-06-08T14:23:21.794Z,100174.00
2023-06-08T14:25:24.693Z,100178.78
2023-06-08T14:27:27.534Z,100169.97
2023-06-08T14:29:30.444Z,100173.81
2023-06-08T14:31:33.318Z,100172.50
2023-06-08T14:33:36.198Z,100171.28
2023-06-08T14:35:41.809Z,100178.44
2023-06-08T14:37:44.809Z,100178.81
2023-06-08T14:39:47.703Z,100182.72
2023-06-08T14:41:50.533Z,100180.25
2023-06-08T14:43:53.331Z,100182.81
2023-06-08T14:45:56.166Z,100186.63
2023-06-08T14:47:59.323Z,100198.34
2023-06-08T14:50:02.289Z,100196.31
2023-06-08T14:52:07.250Z,100190.56
2023-06-08T14:54:10.148Z,100190.06
2023-06-08T14:56:15.868Z,100187.13
2023-06-08T14:58:18.956Z,100191.13
2023-06-08T15:00:22.860Z,100193.31
2023-06-08T15:02:25.750Z,100186.16
2023-06-08T15:04:28.627Z,100192.91
2023-06-08T15:06:32.913Z,100187.00
2023-06-08T15:08:38.223Z,100181.78
2023-06-08T15:10:41.106Z,100183.88
2023-06-08T15:12:44.035Z,100175.44
2023-06-08T15:14:51.072Z,100183.97
2023-06-08T15:16:54.476Z,100183.38
2023-06-08T15:18:57.460Z,100182.16
2023-06-08T15:21:00.401Z,100175.00
2023-06-08T15:23:03.249Z,100189.69
2023-06-08T15:25:08.454Z,100191.59
2023-06-08T15:27:11.303Z,100207.41
2023-06-08T15:29:14.098Z,100204.41
2023-06-08T15:31:17.089Z,100205.56
2023-06-08T15:33:20.084Z,100206.44
2023-06-08T15:35:22.933Z,100215.91
2023-06-08T15:37:29.345Z,100217.31
2023-06-08T15:39:32.253Z,100208.00
2023-06-08T15:41:36.479Z,100209.19
2023-06-08T15:43:39.168Z,100202.47
2023-06-08T15:45:42.231Z,100203.19
2023-06-08T15:47:46.890Z,100198.19
2023-06-08T15:49:50.873Z,100188.97
2023-06-08T15:51:53.726Z,100180.97
2023-06-08T15:53:56.875Z,100176.91
2023-06-08T15:55:59.700Z,100170.44
2023-06-08T15:58:05.031Z,100178.00
2023-06-08T16:00:09.805Z,100172.56
2023-06-08T16:02:15.754Z,100170.09
2023-06-08T16:04:18.669Z,100170.72
2023-06-08T16:06:25.283Z,100163.28
2023-06-08T16:08:28.308Z,100174.00
2023-06-08T16:10:31.192Z,100173.72
2023-06-08T16:12:34.031Z,100171.53
2023-06-08T16:14:38.199Z,100164.41
2023-06-08T16:16:40.988Z,100159.22
2023-06-08T16:18:43.886Z,100167.81
2023-06-08T16:20:48.333Z,100163.91
2023-06-08T16:22:52.163Z,100166.09
2023-06-08T16:24:55.027Z,100166.28
2023-06-08T16:27:02.150Z,100164.38
2023-06-08T16:29:04.940Z,100163.06
2023-06-08T16:31:09.160Z,100163.56
2023-06-08T16:33:12.289Z,100166.09
2023-06-08T16:35:15.413Z,100173.34
2023-06-08T16:37:18.335Z,100168.66
2023-06-08T16:39:21.207Z,100175.56
2023-06-08T16:41:26.226Z,100167.53
2023-06-08T16:43:29.050Z,100165.06
2023-06-08T16:45:32.608Z,100158.44
2023-06-08T16:47:37.683Z,100161.22
2023-06-08T16:49:41.130Z,100167.66
2023-06-08T16:51:44.049Z,100167.56
2023-06-08T16:53:47.484Z,100168.19
2023-06-08T16:55:51.952Z,100176.38
2023-06-08T16:57:54.874Z,100161.56
2023-06-08T16:59:57.765Z,100159.63
2023-06-08T17:02:01.030Z,100164.50
2023-06-08T17:04:05.452Z,100174.81
2023-06-08T17:06:08.567Z,100180.97
2023-06-08T17:08:11.415Z,100178.75
2023-06-08T17:10:14.343Z,100177.81
2023-06-08T17:12:17.558Z,100186.66
2023-06-08T17:14:20.381Z,100186.84
2023-06-08T17:16:23.324Z,100195.94
2023-06-08T17:18:26.264Z,100196.38
2023-06-08T17:20:30.493Z,100199.47
2023-06-08T17:22:33.253Z,100209.97
2023-06-08T17:24:36.347Z,100207.31
2023-06-08T17:26:40.608Z,100201.19
2023-06-08T17:28:43.334Z,100202.06
2023-06-08T17:30:46.664Z,100193.75
2023-06-08T17:32:49.577Z,100195.47
2023-06-08T17:34:52.875Z,100196.31
2023-06-08T17:36:57.546Z,100194.84
2023-06-08T17:39:00.520Z,100192.84
2023-06-08T17:41:03.434Z,100197.31
2023-06-08T17:43:06.233Z,100198.09
2023-06-08T17:45:10.309Z,100206.53
2023-06-08T17:47:13.182Z,100211.09
2023-06-08T17:49:15.993Z,100214.00
2023-06-08T17:51:18.984Z,100216.69
2023-06-08T17:53:23.326Z,100221.88
2023-06-08T17:55:26.251Z,100218.44
2023-06-08T17:57:29.078Z,100220.19
2023-06-08T17:59:32.066Z,100209.00
2023-06-08T18:01:35.450Z,100204.88
2023-06-08T18:03:43.145Z,100226.84
2023-06-08T18:05:46.164Z,100209.59
2023-06-08T18:07:49.057Z,100210.34
2023-06-08T18:09:53.361Z,100204.28
2023-06-08T18:11:56.409Z,100200.44
2023-06-08T18:13:59.277Z,100194.97
2023-06-08T18:16:02.112Z,100198.53
2023-06-08T18:18:05.467Z,100192.97
2023-06-08T18:20:09.385Z,100192.66
2023-06-08T18:22:12.630Z,100196.91
2023-06-08T18:24:16.514Z,100200.63
2023-06-08T18:26:21.303Z,100196.16
2023-06-08T18:28:24.237Z,100202.84
2023-06-08T18:30:27.748Z,100204.41
2023-06-08T18:32:30.816Z,100209.13
2023-06-08T18:34:33.796Z,100201.56
2023-06-08T18:36:36.664Z,100215.00
2023-06-08T18:38:39.455Z,100217.94
2023-06-08T18:40:42.445Z,100222.13
2023-06-08T18:42:46.879Z,100223.88
2023-06-08T18:44:49.604Z,100217.63
2023-06-08T18:46:52.515Z,100217.50
2023-06-08T18:48:55.423Z,100214.59
2023-06-08T18:50:58.503Z,100224.75
2023-06-08T18:53:01.341Z,100226.38
2023-06-08T18:55:04.407Z,100227.13
2023-06-08T18:57:08.353Z,100228.41
2023-06-08T18:59:12.507Z,100237.63
2023-06-08T19:01:15.610Z,100231.34
2023-06-08T19:03:18.959Z,100232.19
2023-06-08T19:05:21.857Z,100231.91
2023-06-08T19:07:25.042Z,100235.50
2023-06-08T19:09:28.983Z,100241.94
2023-06-08T19:11:31.986Z,100231.13
2023-06-08T19:13:42.157Z,100232.47
2023-06-08T19:15:46.944Z,100236.38
2023-06-08T19:17:49.981Z,100239.13
2023-06-08T19:19:52.943Z,100240.72
2023-06-08T19:21:56.032Z,100238.06
2023-06-08T19:23:58.865Z,100230.22
2023-06-08T19:26:02.008Z,100233.91
2023-06-08T19:28:04.940Z,100231.97
2023-06-08T19:30:09.683Z,100229.31
2023-06-08T19:32:14.092Z,100239.84
2023-06-08T19:34:16.789Z,100238.47
2023-06-08T19:36:19.861Z,100240.94
2023-06-08T19:38:23.091Z,100235.47
2023-06-08T19:40:26.017Z,100230.03
2023-06-08T19:42:28.897Z,100235.28
2023-06-08T19:44:32.240Z,100236.28
2023-06-08T19:46:38.573Z,100236.38
2023-06-08T19:48:42.973Z,100246.19
2023-06-08T19:50:45.733Z,100245.81
2023-06-08T19:52:48.924Z,100248.47
2023-06-08T19:54:52.074Z,100241.38
2023-06-08T19:56:55.074Z,100237.84
2023-06-08T19:58:58.008Z,100240.44
2023-06-08T20:01:01.342Z,100241.31
2023-06-08T20:03:04.851Z,100237.78
2023-06-08T20:05:10.424Z,100240.50
2023-06-08T20:07:16.328Z,100236.03
2023-06-08T20:09:22.624Z,100237.72
2023-06-08T20:11:25.966Z,100242.19
2023-06-08T20:13:28.848Z,100238.69
2023-06-08T20:15:32.420Z,100237.72
2023-06-08T20:17:35.553Z,100239.59
2023-06-08T20:19:38.476Z,100252.03
2023-06-08T20:21:43.239Z,100247.59
2023-06-08T20:23:46.133Z,100253.03
2023-06-08T20:25:48.972Z,100255.75
2023-06-08T20:27:51.966Z,100255.63
2023-06-08T20:29:54.846Z,100259.19
2023-06-08T20:31:57.857Z,100267.22
2023-06-08T20:34:00.843Z,100263.66
2023-06-08T20:36:03.709Z,100257.47
2023-06-08T20:38:08.169Z,100268.19
2023-06-08T20:40:11.853Z,100259.69
2023-06-08T20:42:14.756Z,100265.09
2023-06-08T20:44:17.641Z,100264.31
2023-06-08T20:46:20.482Z,100258.22
2023-06-08T20:48:23.402Z,100260.03
2023-06-08T20:50:26.437Z,100261.91
2023-06-08T20:52:29.275Z,100265.34
2023-06-08T20:54:33.545Z,100278.84
2023-06-08T20:56:36.531Z,100301.78
2023-06-08T20:58:39.381Z,100309.81
2023-06-08T21:00:43.004Z,100297.34
2023-06-08T21:02:48.956Z,100298.91
2023-06-08T21:04:54.627Z,100298.25
2023-06-08T21:06:57.545Z,100306.44
2023-06-08T21:09:00.988Z,100311.69
2023-06-08T21:11:05.256Z,100296.50
2023-06-08T21:13:08.117Z,100305.47
2023-06-08T21:15:11.511Z,100296.16
2023-06-08T21:17:14.468Z,100299.63
2023-06-08T21:19:17.274Z,100305.88
2023-06-08T21:21:20.112Z,100304.19
2023-06-08T21:23:22.970Z,100305.88
2023-06-08T21:25:25.849Z,100308.16
2023-06-08T21:27:30.897Z,100312.84
2023-06-08T21:29:33.883Z,100311.94
2023-06-08T21:31:36.815Z,100307.72
2023-06-08T21:33:41.549Z,100307.53
2023-06-08T21:35:47.558Z,100305.69
2023-06-08T21:38:00.919Z,100305.81
2023-06-08T21:40:03.921Z,100303.22
2023-06-08T21:42:07.726Z,100307.59
2023-06-08T21:44:11.905Z,100300.44
2023-06-08T21:46:14.826Z,100306.59
2023-06-08T21:48:17.706Z,100314.59
2023-06-08T21:50:21.467Z,100309.78
2023-06-08T21:52:24.624Z,100302.06
2023-06-08T21:54:27.516Z,100301.53
2023-06-08T21:56:30.390Z,100301.81
2023-06-08T21:58:33.252Z,100312.41
2023-06-08T22:00:38.218Z,100307.44
2023-06-08T22:02:41.732Z,100310.16
2023-06-08T22:04:44.732Z,100306.72
2023-06-08T22:06:47.582Z,100313.97
2023-06-08T22:08:50.458Z,100318.44
2023-06-08T22:10:53.290Z,100320.28
2023-06-08T22:12:56.342Z,100329.97
2023-06-08T22:14:59.863Z,100330.09
2023-06-08T22:17:04.708Z,100331.09
2023-06-08T22:19:08.212Z,100325.78
2023-06-08T22:21:12.701Z,100314.31
2023-06-08T22:23:17.060Z,100320.56
2023-06-08T22:25:21.915Z,100319.88
2023-06-08T22:27:25.244Z,100317.34
2023-06-08T22:29:28.125Z,100314.78
2023-06-08T22:31:34.607Z,100316.47
2023-06-08T22:33:41.094Z,100317.59
2023-06-08T22:35:44.296Z,100314.16
2023-06-08T22:37:47.116Z,100308.97
2023-06-08T22:39:49.931Z,100303.69
2023-06-08T22:41:53.179Z,100298.53
2023-06-08T22:43:57.810Z,100292.47
2023-06-08T22:46:00.664Z,100303.16
2023-06-08T22:48:04.902Z,100288.19
2023-06-08T22:50:09.492Z,100300.94
2023-06-08T22:52:16.436Z,100297.44
2023-06-08T22:54:19.257Z,100295.75
2023-06-08T22:56:22.091Z,100288.66
2023-06-08T22:58:24.948Z,100291.34
2023-06-08T23:00:27.884Z,100288.72
2023-06-08T23:02:30.813Z,100296.69
2023-06-08T23:04:34.627Z,100296.75
2023-06-08T23:06:39.092Z,100295.09
2023-06-08T23:08:45.805Z,100296.13
2023-06-08T23:10:49.865Z,100290.81
2023-06-08T23:12:52.995Z,100287.19
2023-06-08T23:14:57.789Z,100281.00
2023-06-08T23:17:00.644Z,100281.25
2023-06-08T23:19:03.560Z,100273.34
2023-06-08T23:21:06.977Z,100272.44
2023-06-08T23:23:11.147Z,100265.31
2023-06-08T23:25:17.925Z,100267.94
2023-06-08T23:27:23.087Z,100269.69
2023-06-08T23:29:25.888Z,100271.63
2023-06-08T23:31:28.803Z,100269.94
2023-06-08T23:33:31.706Z,100271.78
2023-06-08T23:35:34.538Z,100275.47
2023-06-08T23:37:37.402Z,100267.81
2023-06-08T23:39:41.635Z,100268.72